sensor_id;sensor_type;location;lat;lon;timestamp;P1;durP1;ratioP1;P2;durP2;ratioP2
15946;SDS011;8072;52.554;7.966;2022-07-09T00:00:00;4.50;;;3.80;;
15946;SDS011;8072;52.554;7.966;2022-07-09T00:02:26;7.30;;;3.73;;
15946;SDS011;8072;52.554;7.966;2022-07-09T00:04:52;6.73;;;3.50;;
15946;SDS011;8072;52.554;7.966;2022-07-09T00:07:18;3.90;;;2.87;;
15946;SDS011;8072;52.554;7.966;2022-07-09T00:09:44;6.07;;;3.47;;
15946;SDS011;8072;52.554;7.966;2022-07-09T00:12:09;5.27;;;3.70;;
15946;SDS011;8072;52.554;7.966;2022-07-09T00:14:35;7.43;;;3.57;;
15946;SDS011;8072;52.554;7.966;2022-07-09T00:17:01;7.67;;;3.50;;
15946;SDS011;8072;52.554;7.966;2022-07-09T00:19:27;6.97;;;4.17;;
15946;SDS011;8072;52.554;7.966;2022-07-09T00:21:52;10.37;;;3.87;;
15946;SDS011;8072;52.554;7.966;2022-07-09T00:24:18;6.60;;;4.10;;
15946;SDS011;8072;52.554;7.966;2022-07-09T00:26:44;9.40;;;4.27;;
15946;SDS011;8072;52.554;7.966;2022-07-09T00:29:10;7.20;;;4.27;;
15946;SDS011;8072;52.554;7.966;2022-07-09T00:31:37;6.10;;;3.77;;
15946;SDS011;8072;52.554;7.966;2022-07-09T00:34:03;6.90;;;3.67;;
15946;SDS011;8072;52.554;7.966;2022-07-09T00:36:29;3.97;;;3.07;;
15946;SDS011;8072;52.554;7.966;2022-07-09T00:38:54;8.27;;;3.87;;
15946;SDS011;8072;52.554;7.966;2022-07-09T00:41:20;5.83;;;3.67;;
15946;SDS011;8072;52.554;7.966;2022-07-09T00:43:46;8.03;;;4.10;;
15946;SDS011;8072;52.554;7.966;2022-07-09T00:46:16;8.13;;;3.47;;
15946;SDS011;8072;52.554;7.966;2022-07-09T00:48:42;5.97;;;3.27;;
15946;SDS011;8072;52.554;7.966;2022-07-09T00:51:08;4.70;;;3.50;;
15946;SDS011;8072;52.554;7.966;2022-07-09T00:53:36;6.80;;;3.37;;
15946;SDS011;8072;52.554;7.966;2022-07-09T00:56:04;5.30;;;3.17;;
15946;SDS011;8072;52.554;7.966;2022-07-09T00:58:30;9.67;;;3.53;;
15946;SDS011;8072;52.554;7.966;2022-07-09T01:00:57;6.87;;;3.97;;
15946;SDS011;8072;52.554;7.966;2022-07-09T01:03:23;7.50;;;4.47;;
15946;SDS011;8072;52.554;7.966;2022-07-09T01:05:51;6.70;;;3.53;;
15946;SDS011;8072;52.554;7.966;2022-07-09T01:08:17;8.90;;;4.83;;
15946;SDS011;8072;52.554;7.966;2022-07-09T01:10:43;8.90;;;4.40;;
15946;SDS011;8072;52.554;7.966;2022-07-09T01:13:10;6.03;;;3.93;;
15946;SDS011;8072;52.554;7.966;2022-07-09T01:15:36;7.80;;;4.23;;
15946;SDS011;8072;52.554;7.966;2022-07-09T01:18:02;7.93;;;4.57;;
15946;SDS011;8072;52.554;7.966;2022-07-09T01:20:29;8.70;;;4.37;;
15946;SDS011;8072;52.554;7.966;2022-07-09T01:22:55;8.87;;;4.33;;
15946;SDS011;8072;52.554;7.966;2022-07-09T01:25:30;7.17;;;4.20;;
15946;SDS011;8072;52.554;7.966;2022-07-09T01:28:02;7.40;;;4.20;;
15946;SDS011;8072;52.554;7.966;2022-07-09T01:30:31;7.80;;;4.60;;
15946;SDS011;8072;52.554;7.966;2022-07-09T01:32:57;6.53;;;4.30;;
15946;SDS011;8072;52.554;7.966;2022-07-09T01:35:24;11.43;;;5.33;;
15946;SDS011;8072;52.554;7.966;2022-07-09T01:37:50;6.70;;;4.00;;
15946;SDS011;8072;52.554;7.966;2022-07-09T01:40:16;8.53;;;4.90;;
15946;SDS011;8072;52.554;7.966;2022-07-09T01:42:42;7.40;;;4.30;;
15946;SDS011;8072;52.554;7.966;2022-07-09T01:45:08;7.57;;;4.40;;
15946;SDS011;8072;52.554;7.966;2022-07-09T01:47:34;7.43;;;4.30;;
15946;SDS011;8072;52.554;7.966;2022-07-09T01:50:00;8.13;;;4.73;;
15946;SDS011;8072;52.554;7.966;2022-07-09T01:52:26;7.37;;;4.30;;
15946;SDS011;8072;52.554;7.966;2022-07-09T01:54:56;7.03;;;4.27;;
15946;SDS011;8072;52.554;7.966;2022-07-09T01:57:22;7.70;;;4.37;;
15946;SDS011;8072;52.554;7.966;2022-07-09T01:59:47;6.37;;;3.83;;
15946;SDS011;8072;52.554;7.966;2022-07-09T02:02:13;6.30;;;4.20;;
15946;SDS011;8072;52.554;7.966;2022-07-09T02:04:39;6.63;;;4.30;;
15946;SDS011;8072;52.554;7.966;2022-07-09T02:07:05;7.80;;;4.17;;
15946;SDS011;8072;52.554;7.966;2022-07-09T02:09:30;5.93;;;4.43;;
15946;SDS011;8072;52.554;7.966;2022-07-09T02:11:56;8.13;;;4.80;;
15946;SDS011;8072;52.554;7.966;2022-07-09T02:14:22;5.67;;;4.20;;
15946;SDS011;8072;52.554;7.966;2022-07-09T02:16:48;7.37;;;4.37;;
15946;SDS011;8072;52.554;7.966;2022-07-09T02:19:14;10.00;;;4.97;;
15946;SDS011;8072;52.554;7.966;2022-07-09T02:21:40;8.67;;;5.07;;
15946;SDS011;8072;52.554;7.966;2022-07-09T02:24:06;7.40;;;3.73;;
15946;SDS011;8072;52.554;7.966;2022-07-09T02:26:32;6.83;;;4.30;;
15946;SDS011;8072;52.554;7.966;2022-07-09T02:28:59;8.63;;;4.17;;
15946;SDS011;8072;52.554;7.966;2022-07-09T02:31:25;8.07;;;4.47;;
15946;SDS011;8072;52.554;7.966;2022-07-09T02:33:52;9.40;;;4.43;;
15946;SDS011;8072;52.554;7.966;2022-07-09T02:36:17;6.27;;;4.10;;
15946;SDS011;8072;52.554;7.966;2022-07-09T02:38:44;6.43;;;3.90;;
15946;SDS011;8072;52.554;7.966;2022-07-09T02:41:10;8.13;;;4.70;;
15946;SDS011;8072;52.554;7.966;2022-07-09T02:43:36;9.27;;;5.00;;
15946;SDS011;8072;52.554;7.966;2022-07-09T02:46:02;9.23;;;4.80;;
15946;SDS011;8072;52.554;7.966;2022-07-09T02:48:29;9.60;;;5.20;;
15946;SDS011;8072;52.554;7.966;2022-07-09T02:50:55;6.87;;;4.60;;
15946;SDS011;8072;52.554;7.966;2022-07-09T02:53:20;8.20;;;4.80;;
15946;SDS011;8072;52.554;7.966;2022-07-09T02:55:46;8.70;;;5.30;;
15946;SDS011;8072;52.554;7.966;2022-07-09T02:58:12;9.00;;;5.43;;
15946;SDS011;8072;52.554;7.966;2022-07-09T03:00:38;8.73;;;5.40;;
15946;SDS011;8072;52.554;7.966;2022-07-09T03:03:05;9.47;;;5.87;;
15946;SDS011;8072;52.554;7.966;2022-07-09T03:05:33;10.90;;;5.60;;
15946;SDS011;8072;52.554;7.966;2022-07-09T03:08:00;9.27;;;6.07;;
15946;SDS011;8072;52.554;7.966;2022-07-09T03:10:28;10.50;;;6.00;;
15946;SDS011;8072;52.554;7.966;2022-07-09T03:12:55;12.60;;;6.57;;
15946;SDS011;8072;52.554;7.966;2022-07-09T03:15:20;10.20;;;6.10;;
15946;SDS011;8072;52.554;7.966;2022-07-09T03:17:47;12.33;;;6.47;;
15946;SDS011;8072;52.554;7.966;2022-07-09T03:20:13;11.67;;;7.03;;
15946;SDS011;8072;52.554;7.966;2022-07-09T03:22:39;12.60;;;7.87;;
15946;SDS011;8072;52.554;7.966;2022-07-09T03:25:06;13.93;;;8.67;;
15946;SDS011;8072;52.554;7.966;2022-07-09T03:27:32;11.03;;;7.97;;
15946;SDS011;8072;52.554;7.966;2022-07-09T03:29:58;19.00;;;9.17;;
15946;SDS011;8072;52.554;7.966;2022-07-09T03:32:25;15.67;;;9.30;;
15946;SDS011;8072;52.554;7.966;2022-07-09T03:34:51;14.37;;;9.97;;
15946;SDS011;8072;52.554;7.966;2022-07-09T03:37:18;14.57;;;9.37;;
15946;SDS011;8072;52.554;7.966;2022-07-09T03:39:49;15.10;;;9.50;;
15946;SDS011;8072;52.554;7.966;2022-07-09T03:42:15;13.23;;;8.33;;
15946;SDS011;8072;52.554;7.966;2022-07-09T03:44:41;17.20;;;9.70;;
15946;SDS011;8072;52.554;7.966;2022-07-09T03:47:07;16.33;;;9.60;;
15946;SDS011;8072;52.554;7.966;2022-07-09T03:49:33;16.23;;;10.63;;
15946;SDS011;8072;52.554;7.966;2022-07-09T03:51:59;16.23;;;9.90;;
15946;SDS011;8072;52.554;7.966;2022-07-09T03:54:25;18.47;;;10.47;;
15946;SDS011;8072;52.554;7.966;2022-07-09T03:56:51;17.07;;;10.30;;
15946;SDS011;8072;52.554;7.966;2022-07-09T03:59:18;20.20;;;10.20;;
15946;SDS011;8072;52.554;7.966;2022-07-09T04:01:45;17.23;;;8.80;;
15946;SDS011;8072;52.554;7.966;2022-07-09T04:04:11;16.47;;;9.07;;
15946;SDS011;8072;52.554;7.966;2022-07-09T04:06:37;16.60;;;8.83;;
15946;SDS011;8072;52.554;7.966;2022-07-09T04:09:03;18.57;;;8.60;;
15946;SDS011;8072;52.554;7.966;2022-07-09T04:11:31;15.37;;;8.47;;
15946;SDS011;8072;52.554;7.966;2022-07-09T04:14:01;15.10;;;9.60;;
15946;SDS011;8072;52.554;7.966;2022-07-09T04:16:28;15.40;;;9.70;;
15946;SDS011;8072;52.554;7.966;2022-07-09T04:18:54;14.17;;;9.50;;
15946;SDS011;8072;52.554;7.966;2022-07-09T04:21:20;14.90;;;9.67;;
15946;SDS011;8072;52.554;7.966;2022-07-09T04:23:49;14.93;;;9.83;;
15946;SDS011;8072;52.554;7.966;2022-07-09T04:26:15;17.93;;;10.63;;
15946;SDS011;8072;52.554;7.966;2022-07-09T04:28:43;14.60;;;9.70;;
15946;SDS011;8072;52.554;7.966;2022-07-09T04:31:12;17.40;;;10.10;;
15946;SDS011;8072;52.554;7.966;2022-07-09T04:33:38;15.03;;;9.80;;
15946;SDS011;8072;52.554;7.966;2022-07-09T04:36:04;20.07;;;10.77;;
15946;SDS011;8072;52.554;7.966;2022-07-09T04:38:29;17.97;;;10.13;;
15946;SDS011;8072;52.554;7.966;2022-07-09T04:40:56;17.73;;;9.07;;
15946;SDS011;8072;52.554;7.966;2022-07-09T04:43:22;22.87;;;10.30;;
15946;SDS011;8072;52.554;7.966;2022-07-09T04:45:48;16.67;;;9.60;;
15946;SDS011;8072;52.554;7.966;2022-07-09T04:48:13;12.47;;;8.77;;
15946;SDS011;8072;52.554;7.966;2022-07-09T04:50:39;13.77;;;9.60;;
15946;SDS011;8072;52.554;7.966;2022-07-09T04:53:05;14.77;;;8.97;;
15946;SDS011;8072;52.554;7.966;2022-07-09T04:55:31;19.13;;;10.17;;
15946;SDS011;8072;52.554;7.966;2022-07-09T04:57:57;18.73;;;9.13;;
15946;SDS011;8072;52.554;7.966;2022-07-09T05:00:22;13.40;;;8.10;;
15946;SDS011;8072;52.554;7.966;2022-07-09T05:02:48;14.57;;;7.97;;
15946;SDS011;8072;52.554;7.966;2022-07-09T05:05:14;19.87;;;8.73;;
15946;SDS011;8072;52.554;7.966;2022-07-09T05:07:40;12.87;;;8.27;;
15946;SDS011;8072;52.554;7.966;2022-07-09T05:10:07;17.63;;;7.60;;
15946;SDS011;8072;52.554;7.966;2022-07-09T05:12:33;14.47;;;8.50;;
15946;SDS011;8072;52.554;7.966;2022-07-09T05:14:59;13.23;;;8.63;;
15946;SDS011;8072;52.554;7.966;2022-07-09T05:17:24;13.13;;;7.50;;
15946;SDS011;8072;52.554;7.966;2022-07-09T05:19:50;15.80;;;7.80;;
15946;SDS011;8072;52.554;7.966;2022-07-09T05:22:16;14.83;;;8.40;;
15946;SDS011;8072;52.554;7.966;2022-07-09T05:24:42;12.10;;;7.90;;
15946;SDS011;8072;52.554;7.966;2022-07-09T05:27:08;13.50;;;8.23;;
15946;SDS011;8072;52.554;7.966;2022-07-09T05:29:35;15.27;;;8.27;;
15946;SDS011;8072;52.554;7.966;2022-07-09T05:32:02;12.43;;;8.03;;
15946;SDS011;8072;52.554;7.966;2022-07-09T05:34:28;12.57;;;7.87;;
15946;SDS011;8072;52.554;7.966;2022-07-09T05:36:54;13.93;;;7.53;;
15946;SDS011;8072;52.554;7.966;2022-07-09T05:39:21;15.50;;;7.30;;
15946;SDS011;8072;52.554;7.966;2022-07-09T05:41:47;12.07;;;7.60;;
15946;SDS011;8072;52.554;7.966;2022-07-09T05:44:13;18.80;;;8.83;;
15946;SDS011;8072;52.554;7.966;2022-07-09T05:46:39;12.70;;;7.47;;
15946;SDS011;8072;52.554;7.966;2022-07-09T05:49:06;13.23;;;7.90;;
15946;SDS011;8072;52.554;7.966;2022-07-09T05:51:32;15.87;;;7.23;;
15946;SDS011;8072;52.554;7.966;2022-07-09T05:53:58;16.77;;;8.53;;
15946;SDS011;8072;52.554;7.966;2022-07-09T05:56:24;16.73;;;7.90;;
15946;SDS011;8072;52.554;7.966;2022-07-09T05:58:50;14.47;;;8.03;;
15946;SDS011;8072;52.554;7.966;2022-07-09T06:01:16;8.53;;;6.37;;
15946;SDS011;8072;52.554;7.966;2022-07-09T06:03:43;10.47;;;6.37;;
15946;SDS011;8072;52.554;7.966;2022-07-09T06:06:09;16.87;;;7.23;;
15946;SDS011;8072;52.554;7.966;2022-07-09T06:08:35;10.30;;;6.77;;
15946;SDS011;8072;52.554;7.966;2022-07-09T06:11:01;11.97;;;7.13;;
15946;SDS011;8072;52.554;7.966;2022-07-09T06:13:27;9.50;;;6.83;;
15946;SDS011;8072;52.554;7.966;2022-07-09T06:15:53;11.07;;;6.40;;
15946;SDS011;8072;52.554;7.966;2022-07-09T06:18:19;10.40;;;6.30;;
15946;SDS011;8072;52.554;7.966;2022-07-09T06:20:46;11.47;;;6.20;;
15946;SDS011;8072;52.554;7.966;2022-07-09T06:23:12;9.90;;;6.30;;
15946;SDS011;8072;52.554;7.966;2022-07-09T06:25:38;11.83;;;6.43;;
15946;SDS011;8072;52.554;7.966;2022-07-09T06:28:04;11.30;;;6.17;;
15946;SDS011;8072;52.554;7.966;2022-07-09T06:30:31;13.63;;;6.23;;
15946;SDS011;8072;52.554;7.966;2022-07-09T06:32:59;13.90;;;6.03;;
15946;SDS011;8072;52.554;7.966;2022-07-09T06:35:25;10.40;;;5.60;;
15946;SDS011;8072;52.554;7.966;2022-07-09T06:37:52;10.03;;;5.03;;
15946;SDS011;8072;52.554;7.966;2022-07-09T06:40:18;7.57;;;5.23;;
15946;SDS011;8072;52.554;7.966;2022-07-09T06:42:44;9.70;;;4.77;;
15946;SDS011;8072;52.554;7.966;2022-07-09T06:45:11;8.37;;;4.97;;
15946;SDS011;8072;52.554;7.966;2022-07-09T06:47:37;8.43;;;4.50;;
15946;SDS011;8072;52.554;7.966;2022-07-09T06:50:04;7.43;;;4.93;;
15946;SDS011;8072;52.554;7.966;2022-07-09T06:52:30;5.93;;;4.50;;
15946;SDS011;8072;52.554;7.966;2022-07-09T06:54:56;7.60;;;4.30;;
15946;SDS011;8072;52.554;7.966;2022-07-09T06:57:22;6.77;;;3.63;;
15946;SDS011;8072;52.554;7.966;2022-07-09T06:59:48;4.97;;;3.83;;
15946;SDS011;8072;52.554;7.966;2022-07-09T07:02:14;9.70;;;4.00;;
15946;SDS011;8072;52.554;7.966;2022-07-09T07:04:43;5.60;;;3.87;;
15946;SDS011;8072;52.554;7.966;2022-07-09T07:07:09;8.03;;;3.73;;
15946;SDS011;8072;52.554;7.966;2022-07-09T07:09:36;5.17;;;3.23;;
15946;SDS011;8072;52.554;7.966;2022-07-09T07:12:02;5.53;;;3.00;;
15946;SDS011;8072;52.554;7.966;2022-07-09T07:14:28;7.13;;;2.93;;
15946;SDS011;8072;52.554;7.966;2022-07-09T07:16:54;9.30;;;3.20;;
15946;SDS011;8072;52.554;7.966;2022-07-09T07:19:23;5.13;;;3.10;;
15946;SDS011;8072;52.554;7.966;2022-07-09T07:21:49;5.73;;;3.20;;
15946;SDS011;8072;52.554;7.966;2022-07-09T07:24:15;5.67;;;3.13;;
15946;SDS011;8072;52.554;7.966;2022-07-09T07:26:41;5.53;;;2.90;;
15946;SDS011;8072;52.554;7.966;2022-07-09T07:29:06;4.73;;;3.13;;
15946;SDS011;8072;52.554;7.966;2022-07-09T07:31:34;4.00;;;2.70;;
15946;SDS011;8072;52.554;7.966;2022-07-09T07:34:00;4.40;;;2.77;;
15946;SDS011;8072;52.554;7.966;2022-07-09T07:36:26;4.80;;;2.60;;
15946;SDS011;8072;52.554;7.966;2022-07-09T07:38:52;4.07;;;2.80;;
15946;SDS011;8072;52.554;7.966;2022-07-09T07:41:18;6.60;;;3.00;;
15946;SDS011;8072;52.554;7.966;2022-07-09T07:43:46;5.07;;;3.17;;
15946;SDS011;8072;52.554;7.966;2022-07-09T07:46:12;6.20;;;3.63;;
15946;SDS011;8072;52.554;7.966;2022-07-09T07:48:38;5.30;;;2.77;;
15946;SDS011;8072;52.554;7.966;2022-07-09T07:51:07;4.87;;;2.80;;
15946;SDS011;8072;52.554;7.966;2022-07-09T07:53:33;3.83;;;2.67;;
15946;SDS011;8072;52.554;7.966;2022-07-09T07:56:03;5.07;;;3.10;;
15946;SDS011;8072;52.554;7.966;2022-07-09T07:58:29;4.33;;;3.17;;
15946;SDS011;8072;52.554;7.966;2022-07-09T08:00:56;10.60;;;3.10;;
15946;SDS011;8072;52.554;7.966;2022-07-09T08:03:21;4.80;;;2.80;;
15946;SDS011;8072;52.554;7.966;2022-07-09T08:05:47;5.03;;;2.80;;
15946;SDS011;8072;52.554;7.966;2022-07-09T08:08:13;6.20;;;2.97;;
15946;SDS011;8072;52.554;7.966;2022-07-09T08:10:39;3.53;;;3.13;;
15946;SDS011;8072;52.554;7.966;2022-07-09T08:13:05;5.82;;;3.33;;
15946;SDS011;8072;52.554;7.966;2022-07-09T08:15:30;3.38;;;2.65;;
15946;SDS011;8072;52.554;7.966;2022-07-09T08:17:56;6.50;;;3.35;;
15946;SDS011;8072;52.554;7.966;2022-07-09T08:20:22;4.82;;;2.92;;
15946;SDS011;8072;52.554;7.966;2022-07-09T08:22:48;4.50;;;3.00;;
15946;SDS011;8072;52.554;7.966;2022-07-09T08:25:14;4.80;;;3.25;;
15946;SDS011;8072;52.554;7.966;2022-07-09T08:27:42;5.68;;;3.17;;
15946;SDS011;8072;52.554;7.966;2022-07-09T08:30:08;6.20;;;2.83;;
15946;SDS011;8072;52.554;7.966;2022-07-09T08:32:35;5.80;;;3.55;;
15946;SDS011;8072;52.554;7.966;2022-07-09T08:35:03;6.30;;;3.53;;
15946;SDS011;8072;52.554;7.966;2022-07-09T08:37:30;4.55;;;2.90;;
15946;SDS011;8072;52.554;7.966;2022-07-09T08:39:55;8.35;;;3.28;;
15946;SDS011;8072;52.554;7.966;2022-07-09T08:42:21;5.75;;;3.10;;
15946;SDS011;8072;52.554;7.966;2022-07-09T08:44:47;4.63;;;3.10;;
15946;SDS011;8072;52.554;7.966;2022-07-09T08:47:16;4.37;;;3.00;;
15946;SDS011;8072;52.554;7.966;2022-07-09T08:49:42;5.80;;;3.20;;
15946;SDS011;8072;52.554;7.966;2022-07-09T08:52:10;5.10;;;3.17;;
15946;SDS011;8072;52.554;7.966;2022-07-09T08:54:37;11.50;;;3.90;;
15946;SDS011;8072;52.554;7.966;2022-07-09T08:57:04;5.20;;;2.75;;
15946;SDS011;8072;52.554;7.966;2022-07-09T08:59:31;4.55;;;2.85;;
15946;SDS011;8072;52.554;7.966;2022-07-09T09:01:57;4.13;;;2.40;;
15946;SDS011;8072;52.554;7.966;2022-07-09T09:04:28;3.45;;;2.17;;
15946;SDS011;8072;52.554;7.966;2022-07-09T09:06:55;3.93;;;2.60;;
15946;SDS011;8072;52.554;7.966;2022-07-09T09:09:20;6.22;;;2.40;;
15946;SDS011;8072;52.554;7.966;2022-07-09T09:11:48;3.50;;;2.35;;
15946;SDS011;8072;52.554;7.966;2022-07-09T09:14:21;4.75;;;2.33;;
15946;SDS011;8072;52.554;7.966;2022-07-09T09:16:47;4.47;;;2.70;;
15946;SDS011;8072;52.554;7.966;2022-07-09T09:19:14;5.03;;;2.30;;
15946;SDS011;8072;52.554;7.966;2022-07-09T09:21:40;4.70;;;2.28;;
15946;SDS011;8072;52.554;7.966;2022-07-09T09:24:05;3.65;;;2.17;;
15946;SDS011;8072;52.554;7.966;2022-07-09T09:26:31;4.78;;;2.17;;
15946;SDS011;8072;52.554;7.966;2022-07-09T09:29:01;2.58;;;2.20;;
15946;SDS011;8072;52.554;7.966;2022-07-09T09:34:10;2.50;;;1.85;;
15946;SDS011;8072;52.554;7.966;2022-07-09T09:36:41;2.58;;;1.88;;
15946;SDS011;8072;52.554;7.966;2022-07-09T09:41:45;2.25;;;1.70;;
15946;SDS011;8072;52.554;7.966;2022-07-09T09:44:17;3.30;;;2.00;;
15946;SDS011;8072;52.554;7.966;2022-07-09T09:46:53;1.75;;;1.60;;
15946;SDS011;8072;52.554;7.966;2022-07-09T09:49:20;2.58;;;1.70;;
15946;SDS011;8072;52.554;7.966;2022-07-09T09:52:00;2.42;;;1.73;;
15946;SDS011;8072;52.554;7.966;2022-07-09T09:54:33;4.18;;;1.88;;
15946;SDS011;8072;52.554;7.966;2022-07-09T09:57:07;3.35;;;1.80;;
15946;SDS011;8072;52.554;7.966;2022-07-09T09:59:42;2.33;;;1.67;;
15946;SDS011;8072;52.554;7.966;2022-07-09T10:02:10;4.03;;;1.80;;
15946;SDS011;8072;52.554;7.966;2022-07-09T10:04:36;3.13;;;1.60;;
15946;SDS011;8072;52.554;7.966;2022-07-09T10:07:03;5.10;;;1.63;;
15946;SDS011;8072;52.554;7.966;2022-07-09T10:09:30;2.75;;;1.45;;
15946;SDS011;8072;52.554;7.966;2022-07-09T10:11:56;3.65;;;1.90;;
15946;SDS011;8072;52.554;7.966;2022-07-09T10:14:36;2.05;;;1.52;;
15946;SDS011;8072;52.554;7.966;2022-07-09T10:17:09;2.00;;;1.50;;
15946;SDS011;8072;52.554;7.966;2022-07-09T10:19:36;2.10;;;1.40;;
15946;SDS011;8072;52.554;7.966;2022-07-09T10:22:03;42.00;;;6.32;;
15946;SDS011;8072;52.554;7.966;2022-07-09T10:24:30;2.25;;;1.50;;
15946;SDS011;8072;52.554;7.966;2022-07-09T10:27:04;2.90;;;1.50;;
15946;SDS011;8072;52.554;7.966;2022-07-09T10:29:36;4.05;;;1.70;;
15946;SDS011;8072;52.554;7.966;2022-07-09T10:32:30;1.70;;;1.25;;
15946;SDS011;8072;52.554;7.966;2022-07-09T10:35:04;2.78;;;1.50;;
15946;SDS011;8072;52.554;7.966;2022-07-09T10:42:43;30.70;;;4.80;;
15946;SDS011;8072;52.554;7.966;2022-07-09T10:45:24;1.63;;;1.00;;
15946;SDS011;8072;52.554;7.966;2022-07-09T10:47:53;1.50;;;0.80;;
15946;SDS011;8072;52.554;7.966;2022-07-09T10:50:23;1.25;;;1.13;;
15946;SDS011;8072;52.554;7.966;2022-07-09T10:52:51;1.60;;;1.00;;
15946;SDS011;8072;52.554;7.966;2022-07-09T10:55:19;1.55;;;1.10;;
15946;SDS011;8072;52.554;7.966;2022-07-09T10:57:46;2.63;;;1.23;;
15946;SDS011;8072;52.554;7.966;2022-07-09T11:00:16;1.70;;;1.17;;
15946;SDS011;8072;52.554;7.966;2022-07-09T11:02:53;1.63;;;1.30;;
15946;SDS011;8072;52.554;7.966;2022-07-09T11:05:23;3.33;;;1.10;;
15946;SDS011;8072;52.554;7.966;2022-07-09T11:07:57;1.40;;;0.88;;
15946;SDS011;8072;52.554;7.966;2022-07-09T11:10:31;1.40;;;1.00;;
15946;SDS011;8072;52.554;7.966;2022-07-09T11:13:05;1.95;;;1.17;;
15946;SDS011;8072;52.554;7.966;2022-07-09T11:15:33;2.08;;;1.10;;
15946;SDS011;8072;52.554;7.966;2022-07-09T11:18:01;3.03;;;1.00;;
15946;SDS011;8072;52.554;7.966;2022-07-09T11:20:30;2.85;;;1.00;;
15946;SDS011;8072;52.554;7.966;2022-07-09T11:22:58;2.15;;;0.90;;
15946;SDS011;8072;52.554;7.966;2022-07-09T11:25:27;1.08;;;0.98;;
15946;SDS011;8072;52.554;7.966;2022-07-09T11:27:57;1.13;;;0.93;;
15946;SDS011;8072;52.554;7.966;2022-07-09T11:30:24;1.10;;;1.00;;
15946;SDS011;8072;52.554;7.966;2022-07-09T11:32:50;2.00;;;1.00;;
15946;SDS011;8072;52.554;7.966;2022-07-09T11:35:32;1.38;;;0.88;;
15946;SDS011;8072;52.554;7.966;2022-07-09T11:38:03;4.65;;;1.15;;
15946;SDS011;8072;52.554;7.966;2022-07-09T11:40:30;1.60;;;1.00;;
15946;SDS011;8072;52.554;7.966;2022-07-09T11:42:56;5.60;;;1.25;;
15946;SDS011;8072;52.554;7.966;2022-07-09T11:45:24;1.25;;;0.90;;
15946;SDS011;8072;52.554;7.966;2022-07-09T11:48:12;2.33;;;1.08;;
15946;SDS011;8072;52.554;7.966;2022-07-09T11:50:42;3.85;;;1.30;;
15946;SDS011;8072;52.554;7.966;2022-07-09T11:53:21;3.55;;;0.90;;
15946;SDS011;8072;52.554;7.966;2022-07-09T11:55:58;1.67;;;1.00;;
15946;SDS011;8072;52.554;7.966;2022-07-09T11:58:25;1.20;;;1.10;;
15946;SDS011;8072;52.554;7.966;2022-07-09T12:00:51;1.75;;;0.80;;
15946;SDS011;8072;52.554;7.966;2022-07-09T12:03:24;3.78;;;1.33;;
15946;SDS011;8072;52.554;7.966;2022-07-09T12:05:52;5.13;;;2.35;;
15946;SDS011;8072;52.554;7.966;2022-07-09T12:08:28;3.78;;;2.50;;
15946;SDS011;8072;52.554;7.966;2022-07-09T12:10:55;3.85;;;1.75;;
15946;SDS011;8072;52.554;7.966;2022-07-09T12:13:22;5.47;;;1.00;;
15946;SDS011;8072;52.554;7.966;2022-07-09T12:15:48;5.88;;;2.15;;
15946;SDS011;8072;52.554;7.966;2022-07-09T12:18:14;4.70;;;1.17;;
15946;SDS011;8072;52.554;7.966;2022-07-09T12:20:39;2.10;;;1.20;;
15946;SDS011;8072;52.554;7.966;2022-07-09T12:23:06;2.22;;;1.35;;
15946;SDS011;8072;52.554;7.966;2022-07-09T12:25:31;3.30;;;1.17;;
15946;SDS011;8072;52.554;7.966;2022-07-09T12:27:57;2.13;;;1.30;;
15946;SDS011;8072;52.554;7.966;2022-07-09T12:30:23;1.48;;;0.93;;
15946;SDS011;8072;52.554;7.966;2022-07-09T12:32:49;3.55;;;1.23;;
15946;SDS011;8072;52.554;7.966;2022-07-09T12:35:16;4.93;;;1.30;;
15946;SDS011;8072;52.554;7.966;2022-07-09T12:37:42;1.75;;;0.85;;
15946;SDS011;8072;52.554;7.966;2022-07-09T12:40:08;2.72;;;1.20;;
15946;SDS011;8072;52.554;7.966;2022-07-09T12:42:35;3.63;;;1.20;;
15946;SDS011;8072;52.554;7.966;2022-07-09T12:45:03;3.50;;;1.17;;
15946;SDS011;8072;52.554;7.966;2022-07-09T12:47:30;3.33;;;1.10;;
15946;SDS011;8072;52.554;7.966;2022-07-09T12:49:56;2.55;;;1.33;;
15946;SDS011;8072;52.554;7.966;2022-07-09T12:52:21;2.40;;;1.00;;
15946;SDS011;8072;52.554;7.966;2022-07-09T12:54:47;3.45;;;1.10;;
15946;SDS011;8072;52.554;7.966;2022-07-09T12:57:13;2.75;;;1.00;;
15946;SDS011;8072;52.554;7.966;2022-07-09T12:59:39;3.15;;;1.13;;
15946;SDS011;8072;52.554;7.966;2022-07-09T13:02:05;4.30;;;1.00;;
15946;SDS011;8072;52.554;7.966;2022-07-09T13:04:31;3.45;;;1.05;;
15946;SDS011;8072;52.554;7.966;2022-07-09T13:06:57;5.95;;;1.10;;
15946;SDS011;8072;52.554;7.966;2022-07-09T13:09:23;2.70;;;1.10;;
15946;SDS011;8072;52.554;7.966;2022-07-09T13:11:49;1.20;;;0.95;;
15946;SDS011;8072;52.554;7.966;2022-07-09T13:14:15;1.70;;;1.00;;
15946;SDS011;8072;52.554;7.966;2022-07-09T13:16:41;2.42;;;0.88;;
15946;SDS011;8072;52.554;7.966;2022-07-09T13:19:07;1.50;;;0.93;;
15946;SDS011;8072;52.554;7.966;2022-07-09T13:21:33;4.30;;;1.33;;
15946;SDS011;8072;52.554;7.966;2022-07-09T13:23:59;4.20;;;1.35;;
15946;SDS011;8072;52.554;7.966;2022-07-09T13:26:25;4.70;;;1.17;;
15946;SDS011;8072;52.554;7.966;2022-07-09T13:28:51;4.43;;;1.40;;
15946;SDS011;8072;52.554;7.966;2022-07-09T13:31:17;4.35;;;1.00;;
15946;SDS011;8072;52.554;7.966;2022-07-09T13:33:46;2.78;;;1.20;;
15946;SDS011;8072;52.554;7.966;2022-07-09T13:36:12;3.13;;;1.38;;
15946;SDS011;8072;52.554;7.966;2022-07-09T13:38:37;2.30;;;1.20;;
15946;SDS011;8072;52.554;7.966;2022-07-09T13:41:03;3.33;;;1.20;;
15946;SDS011;8072;52.554;7.966;2022-07-09T13:43:29;4.00;;;1.20;;
15946;SDS011;8072;52.554;7.966;2022-07-09T13:45:55;2.22;;;1.00;;
15946;SDS011;8072;52.554;7.966;2022-07-09T13:48:25;3.63;;;1.27;;
15946;SDS011;8072;52.554;7.966;2022-07-09T13:50:52;1.83;;;1.00;;
15946;SDS011;8072;52.554;7.966;2022-07-09T13:53:18;3.72;;;1.60;;
15946;SDS011;8072;52.554;7.966;2022-07-09T13:55:45;1.33;;;1.00;;
15946;SDS011;8072;52.554;7.966;2022-07-09T13:58:11;2.92;;;1.08;;
15946;SDS011;8072;52.554;7.966;2022-07-09T14:00:37;1.35;;;1.02;;
15946;SDS011;8072;52.554;7.966;2022-07-09T14:03:03;3.63;;;1.13;;
15946;SDS011;8072;52.554;7.966;2022-07-09T14:05:30;3.00;;;0.90;;
15946;SDS011;8072;52.554;7.966;2022-07-09T14:07:56;6.53;;;1.20;;
15946;SDS011;8072;52.554;7.966;2022-07-09T14:10:23;11.52;;;1.55;;
15946;SDS011;8072;52.554;7.966;2022-07-09T14:12:49;2.88;;;1.73;;
15946;SDS011;8072;52.554;7.966;2022-07-09T14:15:15;4.15;;;1.40;;
15946;SDS011;8072;52.554;7.966;2022-07-09T14:17:42;5.60;;;1.40;;
15946;SDS011;8072;52.554;7.966;2022-07-09T14:20:10;4.07;;;1.08;;
15946;SDS011;8072;52.554;7.966;2022-07-09T14:22:36;5.53;;;1.30;;
15946;SDS011;8072;52.554;7.966;2022-07-09T14:25:02;3.28;;;1.42;;
15946;SDS011;8072;52.554;7.966;2022-07-09T14:27:28;4.35;;;1.50;;
15946;SDS011;8072;52.554;7.966;2022-07-09T14:29:54;7.18;;;1.27;;
15946;SDS011;8072;52.554;7.966;2022-07-09T14:32:20;4.47;;;1.30;;
15946;SDS011;8072;52.554;7.966;2022-07-09T14:34:46;4.35;;;1.40;;
15946;SDS011;8072;52.554;7.966;2022-07-09T14:37:13;5.65;;;1.40;;
15946;SDS011;8072;52.554;7.966;2022-07-09T14:39:40;3.80;;;1.20;;
15946;SDS011;8072;52.554;7.966;2022-07-09T14:42:06;5.25;;;1.05;;
15946;SDS011;8072;52.554;7.966;2022-07-09T14:44:31;3.92;;;1.08;;
15946;SDS011;8072;52.554;7.966;2022-07-09T14:46:57;5.65;;;1.20;;
15946;SDS011;8072;52.554;7.966;2022-07-09T14:49:25;3.47;;;1.15;;
15946;SDS011;8072;52.554;7.966;2022-07-09T14:51:52;2.92;;;1.13;;
15946;SDS011;8072;52.554;7.966;2022-07-09T14:54:18;4.38;;;0.85;;
15946;SDS011;8072;52.554;7.966;2022-07-09T14:56:44;4.35;;;0.93;;
15946;SDS011;8072;52.554;7.966;2022-07-09T14:59:10;4.15;;;1.00;;
15946;SDS011;8072;52.554;7.966;2022-07-09T15:01:37;2.15;;;0.90;;
15946;SDS011;8072;52.554;7.966;2022-07-09T15:04:03;2.78;;;1.02;;
15946;SDS011;8072;52.554;7.966;2022-07-09T15:06:29;3.53;;;1.17;;